DXXX/LFW METAR and TAF weather

Enter ICAO airport designator
Station Type Date Time Source
DXXX METAR 2019/08/22 02:00 UTC NOAA

DXXX 220200Z 24008KT 9999 SCT009 25/23 Q1013 NOSIG


Station Type Date Time Source
DXXX Decoded METAR 2019/08/22 02:00 UTC NOAA

Station name not available
Aug 21, 2019 - 10:00 PM EDT / 2019.08.22 0200 UTC
Wind: from the WSW (240 degrees) at 9 MPH (8 KT):0
Visibility: greater than 7 mile(s):0
Sky conditions: partly cloudy
Temperature: 77 F (25 C)
Dew Point: 73 F (23 C)
Relative Humidity: 88%
Pressure (altimeter): 29.91 in. Hg (1013 hPa)
ob: DXXX 220200Z 24008KT 9999 SCT009 25/23 Q1013 NOSIG
cycle: 2

Station Type Date Time Source
DXXX TAF 2019/08/21 18:51 UTC NOAA

TAF DXXX 211700Z 2118/2224 20012KT 9999 FEW012
BECMG 2202//2204 26006KT
BECMG 2209/2211 20015KT

Example: see airport list